Time;durP1;ratioP1;P1;durP2;ratioP2;P2;SDS_P1;SDS_P2;PMS_P1;PMS_P2;Temp;Humidity;BMP_temperature;BMP_pressure;BME280_temperature;BME280_humidity;BME280_pressure;Samples;Min_cycle;Max_cycle;Signal;HPM_P1;HPM_P2
2024/01/18 00:02:00;;;;;;;12.23;2.40;;;;;;;;;;6032360;23;20041;-79
2024/01/18 00:04:33;;;;;;;7.43;2.60;;;;;;;;;;6056075;23;20409;-79
2024/01/18 00:07:01;;;;;;;16.73;3.27;;;;;;;;;;6060441;23;20027;-79
2024/01/18 00:09:35;;;;;;;12.37;3.70;;;;;;;;;;6059952;23;20027;-79
2024/01/18 00:12:02;;;;;;;17.63;3.53;;;;;;;;;;6059733;23;20023;-79
2024/01/18 00:14:29;;;;;;;;;;;;;;;;;;6034970;23;20025;-79
2024/01/18 00:17:02;;;;;;;7.73;1.97;;;;;;;;;;6060173;23;20339;-79
2024/01/18 00:19:29;;;;;;;;;;;;;;;;;;6056643;23;20026;-79
2024/01/18 00:22:04;;;;;;;8.93;2.13;;;;;;;;;;6059604;23;19924;-79
2024/01/18 00:24:37;;;;;;;4.40;1.87;;;;;;;;;;6062118;23;20026;-79
2024/01/18 00:27:18;;;;;;;8.33;2.87;;;;;;;;;;6091070;23;20368;-78
2024/01/18 00:29:45;;;;;;;8.57;2.20;;;;;;;;;;6088990;23;20468;-79
2024/01/18 00:32:19;;;;;;;5.97;1.83;;;;;;;;;;6087706;23;20599;-79
2024/01/18 00:34:47;;;;;;;5.37;1.80;;;;;;;;;;6063693;23;20030;-77
2024/01/18 00:37:14;;;;;;;;;;;;;;;;;;6089258;23;20493;-79
2024/01/18 00:39:47;;;;;;;6.80;2.23;;;;;;;;;;6089736;23;19921;-79
2024/01/18 00:42:16;;;;;;;6.30;1.97;;;;;;;;;;6089064;23;20023;-78
2024/01/18 00:44:43;;;;;;;5.23;1.97;;;;;;;;;;6089247;23;20073;-79
2024/01/18 00:47:16;;;;;;;7.30;1.97;;;;;;;;;;6086332;23;20034;-79
2024/01/18 00:49:44;;;;;;;;;;;;;;;;;;6087682;23;20030;-79
2024/01/18 00:52:17;;;;;;;4.13;1.53;;;;;;;;;;6088603;23;19921;-79
2024/01/18 00:54:44;;;;;;;;;;;;;;;;;;6088371;23;20034;-79
2024/01/18 00:57:12;;;;;;;2.07;1.33;;;;;;;;;;6088466;23;20319;-78
2024/01/18 00:59:45;;;;;;;5.73;2.03;;;;;;;;;;6088628;23;20022;-79
2024/01/18 01:02:13;;;;;;;2.50;1.60;;;;;;;;;;6088648;23;20476;-79
2024/01/18 01:04:47;;;;;;;9.20;1.70;;;;;;;;;;6088965;23;20057;-80
2024/01/18 01:07:14;;;;;;;7.00;1.87;;;;;;;;;;6089993;23;20030;-79
2024/01/18 01:09:41;;;;;;;2.77;1.50;;;;;;;;;;6062952;23;20078;-79
2024/01/18 01:12:15;;;;;;;6.70;2.00;;;;;;;;;;6065532;23;20018;-79
2024/01/18 01:14:43;;;;;;;10.13;1.73;;;;;;;;;;6087691;23;20026;-79
2024/01/18 01:17:10;;;;;;;;;;;;;;;;;;6090162;23;20029;-78
2024/01/18 01:19:43;;;;;;;2.80;1.60;;;;;;;;;;6087791;23;19921;-79
2024/01/18 01:22:11;;;;;;;3.03;1.87;;;;;;;;;;6087802;23;20034;-79
2024/01/18 01:24:51;;;;;;;3.40;1.33;;;;;;;;;;6088862;23;20408;-79
2024/01/18 01:27:26;;;;;;;9.53;1.80;;;;;;;;;;6090051;23;20081;-79
2024/01/18 01:30:00;;;;;;;5.27;1.80;;;;;;;;;;6085602;23;20085;-79
2024/01/18 01:32:33;;;;;;;5.53;1.67;;;;;;;;;;6089352;23;20713;-79
2024/01/18 01:35:01;;;;;;;2.90;1.70;;;;;;;;;;6089306;23;20023;-79
2024/01/18 01:37:28;;;;;;;7.43;1.87;;;;;;;;;;6091038;23;20030;-79
2024/01/18 01:40:01;;;;;;;6.17;1.60;;;;;;;;;;6087003;23;20030;-79
2024/01/18 01:42:29;;;;;;;3.87;1.47;;;;;;;;;;6088926;23;20060;-79
2024/01/18 01:45:03;;;;;;;5.70;1.43;;;;;;;;;;6088905;23;20027;-79
2024/01/18 01:47:30;;;;;;;8.00;2.33;;;;;;;;;;6085870;23;20721;-79
2024/01/18 01:49:57;;;;;;;7.80;1.50;;;;;;;;;;6084493;23;20057;-79
2024/01/18 01:52:32;;;;;;;3.83;1.60;;;;;;;;;;6088827;23;20511;-79
2024/01/18 01:54:59;;;;;;;5.40;1.47;;;;;;;;;;6087910;23;20397;-79
2024/01/18 01:57:36;;;;;;;1.23;1.13;;;;;;;;;;6087346;23;20027;-79
2024/01/18 02:00:04;;;;;;;3.57;1.43;;;;;;;;;;6088022;23;20030;-78
2024/01/18 02:02:33;;;;;;;5.03;1.53;;;;;;;;;;6087308;23;20022;-78
2024/01/18 02:05:07;;;;;;;3.67;1.30;;;;;;;;;;6087983;23;20088;-78
2024/01/18 02:07:38;;;;;;;3.63;1.50;;;;;;;;;;6089176;23;20494;-78
2024/01/18 02:10:12;;;;;;;2.75;1.23;;;;;;;;;;6088403;23;20085;-78
2024/01/18 02:12:39;;;;;;;2.90;1.50;;;;;;;;;;6087372;23;20027;-78
2024/01/18 02:15:13;;;;;;;4.97;1.53;;;;;;;;;;6087832;23;20032;-78
2024/01/18 02:17:41;;;;;;;3.30;1.73;;;;;;;;;;6086145;23;20094;-78
2024/01/18 02:20:11;;;;;;;;;;;;;;;;;;6087397;23;20029;-79
2024/01/18 02:22:44;;;;;;;3.20;1.30;;;;;;;;;;6087022;23;19920;-78
2024/01/18 02:25:18;;;;;;;4.63;1.37;;;;;;;;;;6087379;23;20026;-78
2024/01/18 02:27:59;;;;;;;2.33;1.50;;;;;;;;;;6088204;23;20034;-78
2024/01/18 02:30:26;;;;;;;2.50;1.33;;;;;;;;;;6087400;23;20105;-78
2024/01/18 02:33:01;;;;;;;2.47;1.47;;;;;;;;;;6090212;23;20022;-80
2024/01/18 02:35:28;;;;;;;6.40;1.50;;;;;;;;;;6091401;23;20436;-80
2024/01/18 02:37:55;;;;;;;2.43;1.50;;;;;;;;;;6090413;23;20049;-79
2024/01/18 02:40:29;;;;;;;4.57;1.70;;;;;;;;;;6090805;23;20030;-80
2024/01/18 02:42:57;;;;;;;2.03;1.50;;;;;;;;;;6090000;23;20022;-81
2024/01/18 02:45:30;;;;;;;2.50;1.27;;;;;;;;;;6089354;23;20113;-80
2024/01/18 02:47:58;;;;;;;2.47;1.43;;;;;;;;;;6088436;23;20105;-80
2024/01/18 02:50:25;;;;;;;5.43;1.57;;;;;;;;;;6088247;23;20114;-80
2024/01/18 02:52:59;;;;;;;2.20;1.20;;;;;;;;;;6089341;23;20041;-80
2024/01/18 02:55:26;;;;;;;8.57;1.17;;;;;;;;;;6089198;23;20377;-80
2024/01/18 02:57:55;;;;;;;3.13;1.13;;;;;;;;;;6090482;23;20026;-80
2024/01/18 03:00:28;;;;;;;2.60;1.43;;;;;;;;;;6090313;23;20050;-81
2024/01/18 03:02:56;;;;;;;3.23;1.10;;;;;;;;;;6087155;23;20026;-80
2024/01/18 03:05:30;;;;;;;1.93;1.47;;;;;;;;;;6091084;23;20023;-80
2024/01/18 03:07:57;;;;;;;1.57;1.47;;;;;;;;;;6089241;23;20018;-80
2024/01/18 03:10:24;;;;;;;1.80;1.13;;;;;;;;;;6087995;23;20501;-80
2024/01/18 03:12:58;;;;;;;4.50;1.73;;;;;;;;;;6090154;23;20553;-80
2024/01/18 03:15:25;;;;;;;3.80;1.70;;;;;;;;;;6089633;23;20030;-80
2024/01/18 03:17:59;;;;;;;1.73;1.40;;;;;;;;;;6087918;23;20352;-80
2024/01/18 03:20:27;;;;;;;1.33;1.17;;;;;;;;;;6087237;23;20527;-81
2024/01/18 03:22:54;;;;;;;3.53;1.43;;;;;;;;;;6089669;23;20027;-81
2024/01/18 03:25:35;;;;;;;2.60;1.27;;;;;;;;;;6088161;23;20539;-80
2024/01/18 03:28:02;;;;;;;2.73;1.30;;;;;;;;;;6085710;23;20026;-80
2024/01/18 03:30:37;;;;;;;1.73;1.20;;;;;;;;;;6088336;23;20029;-80
2024/01/18 03:33:04;;;;;;;3.07;1.60;;;;;;;;;;6087470;23;20716;-81
2024/01/18 03:35:31;;;;;;;4.13;1.53;;;;;;;;;;6089293;23;20057;-81
2024/01/18 03:38:06;;;;;;;4.67;1.70;;;;;;;;;;6089231;23;20026;-83
2024/01/18 03:40:33;;;;;;;2.03;1.50;;;;;;;;;;6088247;23;20476;-80
2024/01/18 03:43:00;;;;;;;2.27;1.47;;;;;;;;;;6087260;23;20023;-80
2024/01/18 03:45:34;;;;;;;3.13;1.87;;;;;;;;;;6088820;23;20026;-81
2024/01/18 03:48:02;;;;;;;3.23;1.60;;;;;;;;;;6088562;23;20477;-81
2024/01/18 03:50:35;;;;;;;2.93;1.60;;;;;;;;;;6087380;23;20049;-80
2024/01/18 03:53:03;;;;;;;3.00;1.60;;;;;;;;;;6088809;23;20022;-80
2024/01/18 03:55:30;;;;;;;5.87;1.60;;;;;;;;;;6088847;23;20030;-80
2024/01/18 03:58:04;;;;;;;8.87;2.20;;;;;;;;;;6087470;23;20543;-80
2024/01/18 04:00:31;;;;;;;4.03;1.43;;;;;;;;;;6088879;23;20022;-81
2024/01/18 04:02:59;;;;;;;6.17;2.03;;;;;;;;;;6090167;23;20038;-81
2024/01/18 04:05:32;;;;;;;2.97;1.73;;;;;;;;;;6089405;23;20046;-80
2024/01/18 04:08:00;;;;;;;7.60;1.97;;;;;;;;;;6090462;23;20026;-80
2024/01/18 04:10:27;;;;;;;8.03;2.43;;;;;;;;;;6088173;23;20101;-81
2024/01/18 04:13:02;;;;;;;3.87;1.80;;;;;;;;;;6087619;23;20025;-80
2024/01/18 04:15:29;;;;;;;4.80;1.70;;;;;;;;;;6087943;23;20110;-81
2024/01/18 04:17:56;;;;;;;2.53;1.70;;;;;;;;;;6089577;23;20026;-81
2024/01/18 04:20:32;;;;;;;6.00;1.77;;;;;;;;;;6085687;23;20468;-81
2024/01/18 04:22:59;;;;;;;2.10;1.40;;;;;;;;;;6087034;23;20026;-80
2024/01/18 04:25:47;;;;;;;5.87;1.60;;;;;;;;;;6085980;23;20033;-81
2024/01/18 04:28:22;;;;;;;2.75;1.70;;;;;;;;;;6088445;23;20026;-80
2024/01/18 04:30:56;;;;;;;4.57;1.90;;;;;;;;;;6088136;23;20693;-81
2024/01/18 04:33:23;;;;;;;3.13;1.80;;;;;;;;;;6089118;23;20038;-80
2024/01/18 04:35:51;;;;;;;4.70;1.70;;;;;;;;;;6087951;23;20026;-81
2024/01/18 04:38:25;;;;;;;9.87;2.00;;;;;;;;;;6088750;23;20093;-80
2024/01/18 04:40:52;;;;;;;5.90;1.60;;;;;;;;;;6087280;23;20476;-81
2024/01/18 04:43:25;;;;;;;5.70;1.50;;;;;;;;;;6089487;23;20026;-80
2024/01/18 04:45:53;;;;;;;3.37;1.50;;;;;;;;;;6089345;23;20022;-80
2024/01/18 04:48:20;;;;;;;4.13;1.50;;;;;;;;;;6087968;23;20026;-81
2024/01/18 04:50:53;;;;;;;5.60;1.50;;;;;;;;;;6086945;23;20026;-80
2024/01/18 04:53:21;;;;;;;4.60;1.70;;;;;;;;;;6089015;23;20539;-80
2024/01/18 04:55:55;;;;;;;6.27;1.53;;;;;;;;;;6086846;23;20089;-80
2024/01/18 04:58:22;;;;;;;4.40;1.50;;;;;;;;;;6086436;23;20144;-80
2024/01/18 05:00:49;;;;;;;4.97;1.50;;;;;;;;;;6088409;23;20401;-80
2024/01/18 05:03:25;;;;;;;4.00;1.73;;;;;;;;;;6088009;23;20291;-80
2024/01/18 05:05:56;;;;;;;4.00;1.43;;;;;;;;;;6087881;23;20062;-80
2024/01/18 05:08:30;;;;;;;3.03;1.67;;;;;;;;;;6088856;23;20026;-78
2024/01/18 05:10:57;;;;;;;2.93;1.57;;;;;;;;;;6090162;23;20027;-80
2024/01/18 05:13:24;;;;;;;2.23;1.60;;;;;;;;;;6089646;23;20022;-80
2024/01/18 05:16:00;;;;;;;5.03;1.50;;;;;;;;;;6089846;23;20037;-80
2024/01/18 05:18:28;;;;;;;2.67;1.40;;;;;;;;;;6089953;23;20559;-80
2024/01/18 05:20:55;;;;;;;3.50;1.70;;;;;;;;;;6087014;23;20029;-80
2024/01/18 05:23:29;;;;;;;8.53;2.90;;;;;;;;;;6088565;23;20026;-80
2024/01/18 05:25:57;;;;;;;4.80;2.73;;;;;;;;;;6088191;23;20261;-80
2024/01/18 05:28:37;;;;;;;7.57;2.67;;;;;;;;;;6086360;23;20029;-80
2024/01/18 05:31:04;;;;;;;3.87;2.00;;;;;;;;;;6089115;23;20033;-78
2024/01/18 05:33:38;;;;;;;3.17;1.77;;;;;;;;;;6089125;23;20378;-78
2024/01/18 05:36:12;;;;;;;4.60;1.87;;;;;;;;;;6089091;23;20038;-78
2024/01/18 05:38:40;;;;;;;3.60;1.37;;;;;;;;;;6086980;23;20410;-79
2024/01/18 05:41:14;;;;;;;4.93;1.80;;;;;;;;;;6085396;23;20033;-78
2024/01/18 05:43:42;;;;;;;2.03;1.50;;;;;;;;;;6086938;23;20033;-78
2024/01/18 05:46:09;;;;;;;2.17;1.50;;;;;;;;;;6085544;23;20026;-79
2024/01/18 05:48:44;;;;;;;3.13;1.43;;;;;;;;;;6088163;23;20023;-78
2024/01/18 05:51:11;;;;;;;3.73;1.70;;;;;;;;;;6087408;23;20431;-78
2024/01/18 05:53:46;;;;;;;3.30;1.83;;;;;;;;;;6089287;23;20022;-77
2024/01/18 05:56:13;;;;;;;5.73;1.40;;;;;;;;;;6087445;23;20650;-78
2024/01/18 05:58:40;;;;;;;1.93;1.47;;;;;;;;;;6082248;23;20202;-78
2024/01/18 06:01:14;;;;;;;2.20;1.40;;;;;;;;;;6089913;23;20731;-78
2024/01/18 06:03:42;;;;;;;5.53;2.00;;;;;;;;;;6091100;23;20026;-78
2024/01/18 06:06:11;;;;;;;2.87;1.50;;;;;;;;;;6090497;23;20077;-78
2024/01/18 06:08:45;;;;;;;2.80;1.47;;;;;;;;;;6092002;23;20069;-78
2024/01/18 06:11:18;;;;;;;2.27;1.50;;;;;;;;;;6091901;23;20594;-78
2024/01/18 06:13:52;;;;;;;6.37;1.73;;;;;;;;;;6088487;23;20481;-78
2024/01/18 06:16:19;;;;;;;4.60;2.00;;;;;;;;;;6092647;23;20034;-78
2024/01/18 06:18:53;;;;;;;2.67;1.70;;;;;;;;;;6091650;23;20030;-78
2024/01/18 06:21:21;;;;;;;1.90;1.50;;;;;;;;;;6091054;23;20046;-77
2024/01/18 06:23:49;;;;;;;2.10;1.47;;;;;;;;;;6091516;23;20027;-78
2024/01/18 06:26:29;;;;;;;5.93;1.60;;;;;;;;;;6088487;23;20032;-77
2024/01/18 06:28:56;;;;;;;3.50;1.77;;;;;;;;;;6087613;23;20077;-78
2024/01/18 06:31:31;;;;;;;1.40;1.30;;;;;;;;;;6091120;23;20476;-77
2024/01/18 06:33:58;;;;;;;2.63;1.60;;;;;;;;;;6090075;23;20046;-77
2024/01/18 06:36:32;;;;;;;2.50;1.23;;;;;;;;;;6090565;23;20031;-78
2024/01/18 06:38:59;;;;;;;3.27;1.70;;;;;;;;;;6090221;23;20102;-78
2024/01/18 06:41:26;;;;;;;5.57;1.60;;;;;;;;;;6090361;23;20495;-78
2024/01/18 06:44:00;;;;;;;4.97;1.60;;;;;;;;;;6089313;23;20456;-78
2024/01/18 06:46:29;;;;;;;2.07;1.60;;;;;;;;;;6092071;23;20030;-78
2024/01/18 06:49:04;;;;;;;2.80;1.70;;;;;;;;;;6093093;23;20026;-78
2024/01/18 06:51:31;;;;;;;2.10;1.40;;;;;;;;;;6092163;23;20041;-77
2024/01/18 06:53:58;;;;;;;2.23;1.53;;;;;;;;;;6092262;23;20030;-78
2024/01/18 06:56:32;;;;;;;1.87;1.33;;;;;;;;;;6093140;23;20026;-77
2024/01/18 06:59:01;;;;;;;2.93;1.60;;;;;;;;;;6092106;23;20022;-77
2024/01/18 07:01:34;;;;;;;3.77;1.30;;;;;;;;;;6091296;23;20026;-79
2024/01/18 07:04:02;;;;;;;2.27;1.60;;;;;;;;;;6090210;23;20077;-78
2024/01/18 07:06:30;;;;;;;4.27;1.33;;;;;;;;;;6092021;23;20056;-77
2024/01/18 07:09:10;;;;;;;2.73;2.03;;;;;;;;;;6090922;23;20285;-78
2024/01/18 07:11:38;;;;;;;3.47;1.50;;;;;;;;;;6090272;23;20175;-78
2024/01/18 07:14:13;;;;;;;2.07;1.40;;;;;;;;;;6091755;23;20581;-77
2024/01/18 07:16:40;;;;;;;7.20;1.40;;;;;;;;;;6092148;23;20496;-78
2024/01/18 07:19:08;;;;;;;5.30;1.23;;;;;;;;;;6091184;23;20030;-78
2024/01/18 07:21:41;;;;;;;5.10;1.70;;;;;;;;;;6090838;23;20026;-78
2024/01/18 07:24:09;;;;;;;1.70;1.50;;;;;;;;;;6090201;23;20033;-78
2024/01/18 07:26:49;;;;;;;7.40;1.70;;;;;;;;;;6091264;23;20026;-78
2024/01/18 07:29:16;;;;;;;2.53;1.60;;;;;;;;;;6088337;23;20026;-78
2024/01/18 07:31:51;;;;;;;6.90;1.50;;;;;;;;;;6090302;23;20468;-78
2024/01/18 07:34:24;;;;;;;3.00;1.50;;;;;;;;;;6090714;23;20023;-78
2024/01/18 07:36:58;;;;;;;3.50;1.60;;;;;;;;;;6089936;23;20125;-78
2024/01/18 07:39:27;;;;;;;4.20;1.60;;;;;;;;;;6090554;23;20038;-77
2024/01/18 07:41:54;;;;;;;3.13;1.60;;;;;;;;;;6091138;23;20027;-78
2024/01/18 07:44:28;;;;;;;4.03;1.70;;;;;;;;;;6090809;23;20105;-77
2024/01/18 07:46:55;;;;;;;2.93;1.70;;;;;;;;;;6090951;23;20026;-78
2024/01/18 07:49:29;;;;;;;4.80;1.47;;;;;;;;;;6089131;23;20483;-77
2024/01/18 07:51:57;;;;;;;2.37;1.40;;;;;;;;;;6090997;23;20030;-78
2024/01/18 07:54:24;;;;;;;3.10;1.50;;;;;;;;;;6089024;23;20019;-78
2024/01/18 07:56:58;;;;;;;3.97;1.47;;;;;;;;;;6090738;23;20540;-78
2024/01/18 07:59:26;;;;;;;1.23;1.13;;;;;;;;;;6088378;23;20026;-78
2024/01/18 08:02:00;;;;;;;2.30;1.37;;;;;;;;;;6089626;23;20040;-77
2024/01/18 08:04:29;;;;;;;2.67;1.70;;;;;;;;;;6091264;23;20041;-78
2024/01/18 08:06:56;;;;;;;4.63;1.57;;;;;;;;;;6087692;23;20026;-78
2024/01/18 08:09:38;;;;;;;2.97;1.60;;;;;;;;;;6090164;23;20125;-78
2024/01/18 08:12:11;;;;;;;4.47;1.80;;;;;;;;;;6089872;23;20077;-78
2024/01/18 08:14:42;;;;;;;5.00;1.70;;;;;;;;;;6090273;23;20101;-77
2024/01/18 08:17:10;;;;;;;4.00;1.50;;;;;;;;;;6087601;23;20026;-78
2024/01/18 08:19:44;;;;;;;4.87;1.90;;;;;;;;;;6090177;23;20360;-78
2024/01/18 08:22:12;;;;;;;3.50;1.90;;;;;;;;;;6090509;23;20059;-77
2024/01/18 08:24:41;;;;;;;2.23;1.50;;;;;;;;;;6090596;23;20030;-78
2024/01/18 08:27:23;;;;;;;4.28;1.63;;;;;;;;;;6089419;23;20023;-78
2024/01/18 08:29:51;;;;;;;4.10;1.63;;;;;;;;;;6089029;23;20022;-79
2024/01/18 08:32:31;;;;;;;2.50;1.70;;;;;;;;;;6090133;23;20097;-78
2024/01/18 08:34:59;;;;;;;11.70;2.20;;;;;;;;;;6088381;23;20107;-78
2024/01/18 08:37:33;;;;;;;1.93;1.53;;;;;;;;;;6090460;23;20081;-78
2024/01/18 08:40:00;;;;;;;4.13;1.70;;;;;;;;;;6090394;23;20038;-77
2024/01/18 08:42:27;;;;;;;17.13;1.93;;;;;;;;;;6088971;23;20057;-78
2024/01/18 08:45:01;;;;;;;4.10;1.87;;;;;;;;;;6089636;23;20068;-78
2024/01/18 08:47:29;;;;;;;2.97;1.80;;;;;;;;;;6089887;23;20101;-80
2024/01/18 08:50:03;;;;;;;3.23;1.80;;;;;;;;;;6089840;23;20023;-80
2024/01/18 08:52:30;;;;;;;4.10;1.97;;;;;;;;;;6091706;23;20030;-80
2024/01/18 08:54:57;;;;;;;4.27;1.87;;;;;;;;;;6089322;23;20026;-81
2024/01/18 08:57:31;;;;;;;2.50;1.73;;;;;;;;;;6089917;23;20400;-79
2024/01/18 08:59:59;;;;;;;2.30;1.73;;;;;;;;;;6086752;23;20476;-81
2024/01/18 09:02:33;;;;;;;5.43;2.00;;;;;;;;;;6090347;23;20045;-80
2024/01/18 09:05:00;;;;;;;3.00;1.97;;;;;;;;;;6089867;23;20026;-80
2024/01/18 09:07:27;;;;;;;2.90;1.53;;;;;;;;;;6088256;23;20022;-80
2024/01/18 09:10:01;;;;;;;2.80;1.80;;;;;;;;;;6089781;23;20318;-81
2024/01/18 09:12:29;;;;;;;3.37;1.70;;;;;;;;;;6090270;23;20030;-80
2024/01/18 09:15:03;;;;;;;3.13;1.93;;;;;;;;;;6087529;23;20416;-81
2024/01/18 09:17:31;;;;;;;7.30;2.17;;;;;;;;;;6087988;23;20018;-80
2024/01/18 09:19:58;;;;;;;3.87;2.10;;;;;;;;;;6088934;23;20205;-81
2024/01/18 09:22:33;;;;;;;11.33;1.97;;;;;;;;;;6090450;23;20026;-80
2024/01/18 09:25:01;;;;;;;5.13;1.70;;;;;;;;;;6088717;23;20022;-80
2024/01/18 09:27:43;;;;;;;3.53;1.80;;;;;;;;;;6087409;23;20026;-81
2024/01/18 09:30:10;;;;;;;4.83;2.17;;;;;;;;;;6089494;23;20029;-80
2024/01/18 09:32:45;;;;;;;5.63;2.47;;;;;;;;;;6088058;23;20022;-81
2024/01/18 09:35:18;;;;;;;3.27;1.90;;;;;;;;;;6088417;23;20619;-80
2024/01/18 09:37:46;;;;;;;5.47;1.90;;;;;;;;;;6087884;23;20465;-81
2024/01/18 09:40:13;;;;;;;5.63;2.10;;;;;;;;;;6088873;23;20352;-80
2024/01/18 09:42:47;;;;;;;5.40;1.87;;;;;;;;;;6090453;23;20640;-81
2024/01/18 09:45:26;;;;;;;4.63;2.27;;;;;;;;;;6087779;23;20034;-81
2024/01/18 09:47:54;;;;;;;5.20;2.30;;;;;;;;;;6089323;23;20025;-81
2024/01/18 09:50:22;;;;;;;3.27;1.90;;;;;;;;;;6088976;23;20034;-80
2024/01/18 09:52:56;;;;;;;4.67;1.97;;;;;;;;;;6090444;23;20457;-81
2024/01/18 09:55:23;;;;;;;3.17;2.20;;;;;;;;;;6088210;23;20022;-80
2024/01/18 09:57:52;;;;;;;9.60;2.43;;;;;;;;;;6089014;23;20101;-79
2024/01/18 10:00:29;;;;;;;6.93;2.33;;;;;;;;;;6089277;23;20026;-78
2024/01/18 10:03:03;;;;;;;3.85;1.95;;;;;;;;;;6088188;23;20081;-78
2024/01/18 10:05:31;;;;;;;3.53;2.00;;;;;;;;;;6089095;23;20026;-78
2024/01/18 10:07:58;;;;;;;4.77;2.23;;;;;;;;;;6090106;23;20033;-78
2024/01/18 10:10:33;;;;;;;4.30;2.10;;;;;;;;;;6089890;23;20026;-78
2024/01/18 10:13:02;;;;;;;6.73;2.80;;;;;;;;;;6090648;23;20034;-78
2024/01/18 10:15:36;;;;;;;8.33;2.23;;;;;;;;;;6088926;23;20085;-78
2024/01/18 10:18:05;;;;;;;6.23;2.13;;;;;;;;;;6090599;23;20026;-78
2024/01/18 10:20:32;;;;;;;7.00;2.20;;;;;;;;;;6089389;23;20027;-78
2024/01/18 10:23:06;;;;;;;6.73;1.97;;;;;;;;;;6088518;23;20022;-78
2024/01/18 10:25:34;;;;;;;11.70;2.90;;;;;;;;;;6089749;23;20027;-78
2024/01/18 10:28:08;;;;;;;3.83;2.13;;;;;;;;;;6089267;23;20125;-78
2024/01/18 10:30:41;;;;;;;5.50;2.10;;;;;;;;;;6089887;23;20023;-78
2024/01/18 10:33:11;;;;;;;7.17;2.10;;;;;;;;;;6089462;23;20269;-78
2024/01/18 10:35:46;;;;;;;3.42;2.00;;;;;;;;;;6089748;23;20093;-78
2024/01/18 10:38:14;;;;;;;7.90;2.47;;;;;;;;;;6090335;23;20089;-78
2024/01/18 10:40:49;;;;;;;8.53;3.10;;;;;;;;;;6090230;23;20085;-77
2024/01/18 10:43:28;;;;;;;6.47;2.37;;;;;;;;;;6088229;23;20033;-80
2024/01/18 10:45:56;;;;;;;5.30;2.43;;;;;;;;;;6092097;23;20371;-80
2024/01/18 10:48:33;;;;;;;4.60;1.90;;;;;;;;;;6090844;23;20026;-80
2024/01/18 10:51:01;;;;;;;7.07;2.20;;;;;;;;;;6091355;23;20056;-80
2024/01/18 10:53:37;;;;;;;6.80;2.23;;;;;;;;;;6093036;23;20023;-79
2024/01/18 10:56:04;;;;;;;5.33;2.60;;;;;;;;;;6091185;23;20036;-80
2024/01/18 10:58:32;;;;;;;5.63;2.43;;;;;;;;;;6093497;23;20085;-80
2024/01/18 11:01:06;;;;;;;2.87;2.10;;;;;;;;;;6092513;23;20026;-80
2024/01/18 11:03:36;;;;;;;5.17;2.20;;;;;;;;;;6093256;23;20086;-79
2024/01/18 11:06:09;;;;;;;8.30;3.00;;;;;;;;;;6091854;23;20085;-80
2024/01/18 11:08:44;;;;;;;5.67;2.40;;;;;;;;;;6091059;23;20322;-80
2024/01/18 11:11:11;;;;;;;6.03;2.13;;;;;;;;;;6091347;23;20078;-80
2024/01/18 11:13:39;;;;;;;6.27;2.20;;;;;;;;;;6091528;23;20029;-80
2024/01/18 11:16:13;;;;;;;5.23;2.53;;;;;;;;;;6090155;23;20085;-83
2024/01/18 11:18:40;;;;;;;10.57;2.40;;;;;;;;;;6091493;23;20029;-80
2024/01/18 11:21:13;;;;;;;6.80;2.20;;;;;;;;;;6091955;23;20078;-80
2024/01/18 11:23:41;;;;;;;;;;;;;;;;;;6092603;23;20022;-80
2024/01/18 11:26:09;;;;;;;4.77;2.13;;;;;;;;;;6090162;23;19925;-80
2024/01/18 11:28:49;;;;;;;10.17;2.77;;;;;;;;;;6092218;23;20034;-80
2024/01/18 11:31:16;;;;;;;5.13;2.20;;;;;;;;;;6091145;23;20503;-79
2024/01/18 11:33:51;;;;;;;4.30;2.37;;;;;;;;;;6091331;23;20197;-80
2024/01/18 11:36:18;;;;;;;6.37;2.10;;;;;;;;;;6090672;23;20030;-79
2024/01/18 11:38:45;;;;;;;;;;;;;;;;;;6091768;23;20019;-80
2024/01/18 11:41:21;;;;;;;4.00;2.13;;;;;;;;;;6090123;23;19921;-80
2024/01/18 11:43:54;;;;;;;8.60;2.37;;;;;;;;;;6091770;23;20033;-79
2024/01/18 11:46:45;;;;;;;4.33;2.10;;;;;;;;;;6089088;23;20460;-79
2024/01/18 11:49:14;;;;;;;7.43;2.00;;;;;;;;;;6089567;23;20148;-79
2024/01/18 11:51:48;;;;;;;5.80;1.95;;;;;;;;;;6089684;23;20031;-79
2024/01/18 11:54:19;;;;;;;8.23;2.20;;;;;;;;;;6087912;23;20101;-80
2024/01/18 11:56:48;;;;;;;9.73;2.28;;;;;;;;;;6090448;23;20030;-79
2024/01/18 11:59:22;;;;;;;6.50;1.98;;;;;;;;;;6089974;23;20464;-80
2024/01/18 12:01:49;;;;;;;9.82;2.58;;;;;;;;;;6090804;23;20093;-79
2024/01/18 12:04:23;;;;;;;5.50;2.70;;;;;;;;;;6091420;23;20081;-79
2024/01/18 12:06:50;;;;;;;;;;;;;;;;;;6090986;23;20641;-79
2024/01/18 12:09:17;;;;;;;6.18;2.22;;;;;;;;;;6088999;23;19964;-79
2024/01/18 12:11:51;;;;;;;8.60;2.13;;;;;;;;;;6088975;23;20026;-79
2024/01/18 12:14:19;;;;;;;3.70;2.30;;;;;;;;;;6090475;23;20764;-80
2024/01/18 12:16:53;;;;;;;3.97;2.05;;;;;;;;;;6088286;23;20038;-80
2024/01/18 12:19:33;;;;;;;5.38;2.10;;;;;;;;;;6090127;23;20090;-79
2024/01/18 12:22:10;;;;;;;4.60;2.17;;;;;;;;;;6086810;23;20535;-80
2024/01/18 12:24:39;;;;;;;7.35;2.95;;;;;;;;;;6090400;23;20018;-82
2024/01/18 12:27:06;;;;;;;7.68;2.35;;;;;;;;;;6090662;23;20022;-78
2024/01/18 12:29:41;;;;;;;7.35;1.88;;;;;;;;;;6090007;23;20509;-80
2024/01/18 12:32:08;;;;;;;6.13;1.83;;;;;;;;;;6088702;23;20093;-78
2024/01/18 12:34:43;;;;;;;6.20;2.13;;;;;;;;;;6089114;23;20491;-80
2024/01/18 12:37:12;;;;;;;5.03;2.30;;;;;;;;;;6090294;23;20105;-80
2024/01/18 12:39:45;;;;;;;5.15;1.95;;;;;;;;;;6090606;23;20030;-80
2024/01/18 12:42:13;;;;;;;;;;;;;;;;;;6090381;23;20046;-78
2024/01/18 12:44:41;;;;;;;2.13;1.67;;;;;;;;;;6090651;23;20442;-77
2024/01/18 12:47:14;;;;;;;9.23;2.10;;;;;;;;;;6088104;23;20029;-80
2024/01/18 12:49:41;;;;;;;;;;;;;;;;;;6089760;23;20574;-80
2024/01/18 12:52:16;;;;;;;5.28;1.80;;;;;;;;;;6088705;23;20058;-80
2024/01/18 12:54:44;;;;;;;;;;;;;;;;;;6091873;23;20027;-80
2024/01/18 12:57:12;;;;;;;8.27;1.75;;;;;;;;;;6090765;23;19925;-80
2024/01/18 12:59:49;;;;;;;9.77;2.05;;;;;;;;;;6092322;23;20022;-79
2024/01/18 13:02:24;;;;;;;8.65;1.70;;;;;;;;;;6091820;23;20468;-80
2024/01/18 13:04:58;;;;;;;4.68;1.88;;;;;;;;;;6090596;23;20543;-80
2024/01/18 13:07:26;;;;;;;4.85;2.00;;;;;;;;;;6089700;23;20054;-80
2024/01/18 13:09:53;;;;;;;4.28;1.83;;;;;;;;;;6090345;23;20023;-80
2024/01/18 13:12:29;;;;;;;7.30;1.75;;;;;;;;;;6088444;23;20023;-80
2024/01/18 13:14:56;;;;;;;6.68;2.22;;;;;;;;;;6090510;23;20074;-80
2024/01/18 13:17:29;;;;;;;6.82;1.75;;;;;;;;;;6090027;23;20038;-78
2024/01/18 13:19:57;;;;;;;7.20;2.10;;;;;;;;;;6088372;23;20023;-78
2024/01/18 13:22:31;;;;;;;3.95;1.88;;;;;;;;;;6089337;23;20081;-80
2024/01/18 13:24:58;;;;;;;;;;;;;;;;;;6090819;23;20030;-78
2024/01/18 13:27:25;;;;;;;7.57;1.90;;;;;;;;;;6088940;23;19980;-77
2024/01/18 13:29:59;;;;;;;6.20;1.98;;;;;;;;;;6089467;23;20097;-78
2024/01/18 13:32:26;;;;;;;9.07;2.05;;;;;;;;;;6088610;23;20026;-78
2024/01/18 13:35:01;;;;;;;9.77;2.85;;;;;;;;;;6089264;23;20027;-78
2024/01/18 13:37:28;;;;;;;10.80;1.77;;;;;;;;;;6089006;23;20476;-78
2024/01/18 13:39:57;;;;;;;6.57;1.75;;;;;;;;;;6088630;23;20026;-79
2024/01/18 13:42:32;;;;;;;10.73;2.40;;;;;;;;;;6089933;23;20030;-78
2024/01/18 13:44:59;;;;;;;;;;;;;;;;;;6089890;23;20026;-78
2024/01/18 13:47:33;;;;;;;9.10;1.60;;;;;;;;;;6090856;23;19921;-78
2024/01/18 13:50:01;;;;;;;5.93;1.83;;;;;;;;;;6089315;23;20033;-78
2024/01/18 13:52:28;;;;;;;8.27;2.08;;;;;;;;;;6090388;23;20099;-78
2024/01/18 13:55:05;;;;;;;4.03;2.30;;;;;;;;;;6090213;23;20094;-78
2024/01/18 13:57:32;;;;;;;8.27;1.88;;;;;;;;;;6090280;23;20026;-77
2024/01/18 13:59:59;;;;;;;5.00;1.85;;;;;;;;;;6088337;23;20062;-77
2024/01/18 14:02:34;;;;;;;8.60;2.97;;;;;;;;;;6090611;23;20034;-77
2024/01/18 14:05:02;;;;;;;6.15;2.30;;;;;;;;;;6090740;23;20025;-77
2024/01/18 14:07:37;;;;;;;8.45;2.50;;;;;;;;;;6089522;23;20026;-77
2024/01/18 14:10:05;;;;;;;11.60;2.30;;;;;;;;;;6090174;23;20105;-78
2024/01/18 14:12:32;;;;;;;7.53;2.30;;;;;;;;;;6086372;23;20066;-77
2024/01/18 14:15:06;;;;;;;5.65;2.08;;;;;;;;;;6089353;23;20027;-77
2024/01/18 14:17:34;;;;;;;5.10;2.33;;;;;;;;;;6089952;23;20100;-77
2024/01/18 14:20:11;;;;;;;5.72;1.92;;;;;;;;;;6090325;23;20097;-80
2024/01/18 14:22:40;;;;;;;5.80;2.08;;;;;;;;;;6090998;23;20027;-80
2024/01/18 14:25:08;;;;;;;6.80;1.85;;;;;;;;;;6090306;23;20029;-81
2024/01/18 14:27:48;;;;;;;6.40;1.90;;;;;;;;;;6091318;23;20093;-83
2024/01/18 14:30:23;;;;;;;5.80;1.77;;;;;;;;;;6091168;23;20460;-80
2024/01/18 14:32:57;;;;;;;8.07;1.80;;;;;;;;;;6092137;23;20053;-80
2024/01/18 14:35:24;;;;;;;;;;;;;;;;;;6091809;23;20027;-80
2024/01/18 14:37:54;;;;;;;8.55;2.33;;;;;;;;;;6090614;23;19921;-80
2024/01/18 14:40:27;;;;;;;6.45;1.60;;;;;;;;;;6091133;23;20094;-80
2024/01/18 14:42:55;;;;;;;4.15;1.60;;;;;;;;;;6087640;23;20034;-80
2024/01/18 14:45:30;;;;;;;6.43;1.50;;;;;;;;;;6090516;23;20567;-80
2024/01/18 14:48:10;;;;;;;5.82;1.35;;;;;;;;;;6091298;23;20032;-80
2024/01/18 14:50:45;;;;;;;1.90;1.17;;;;;;;;;;6091024;23;20090;-80
2024/01/18 14:53:14;;;;;;;8.07;2.10;;;;;;;;;;6090766;23;20110;-80
2024/01/18 14:55:41;;;;;;;10.63;2.97;;;;;;;;;;6090336;23;20438;-80
2024/01/18 14:58:16;;;;;;;6.77;2.20;;;;;;;;;;6091801;23;20074;-80
2024/01/18 15:00:43;;;;;;;11.18;2.92;;;;;;;;;;6091305;23;20031;-80
2024/01/18 15:03:18;;;;;;;15.23;2.20;;;;;;;;;;6090828;23;20026;-80
2024/01/18 15:05:45;;;;;;;;;;;;;;;;;;6092266;23;20074;-79
2024/01/18 15:08:19;;;;;;;9.47;1.80;;;;;;;;;;6091606;23;20324;-80
2024/01/18 15:10:46;;;;;;;;;;;;;;;;;;6091099;23;20029;-80